METAR Data
IDs: Format: Raw Decoded Include TAF

Data at: 1042 UTC 18 Jan 2022

WBGR 181000Z 02012KT 330V070 9999 SCT016 28/23 Q1007